Time;durP1;ratioP1;P1;durP2;ratioP2;P2;SDS_P1;SDS_P2;PMS_P1;PMS_P2;Temp;Humidity;BMP_temperature;BMP_pressure;BME280_temperature;BME280_humidity;BME280_pressure;Samples;Min_cycle;Max_cycle;Signal;HPM_P1;HPM_P2
2022/01/30 00:00:41;;;;;;;3.80;2.13;;;;;;;18.80;52.18;101471.19;5029572;28;20415;-59
2022/01/30 00:03:06;;;;;;;5.00;2.30;;;;;;;18.80;52.08;101476.91;5029891;28;20259;-59
2022/01/30 00:05:34;;;;;;;6.27;2.27;;;;;;;18.80;51.93;101478.91;5029189;28;20250;-59
2022/01/30 00:08:00;;;;;;;3.20;1.93;;;;;;;18.79;52.25;101469.53;5029770;28;20257;-59
2022/01/30 00:10:25;;;;;;;5.47;2.23;;;;;;;18.79;52.00;101460.94;5029370;28;20427;-59
2022/01/30 00:12:55;;;;;;;3.57;1.70;;;;;;;18.77;52.29;101468.22;5029205;28;20204;-59
2022/01/30 00:15:35;;;;;;;3.97;2.10;;;;;;;18.75;52.05;101485.72;5029365;28;20210;-59
2022/01/30 00:18:11;;;;;;;3.60;1.53;;;;;;;18.76;52.43;101492.28;5029823;28;20817;-59
2022/01/30 00:20:39;;;;;;;4.80;1.73;;;;;;;18.78;52.46;101493.59;5030556;28;20411;-59
2022/01/30 00:23:16;;;;;;;5.83;2.07;;;;;;;18.77;52.23;101488.22;5033019;28;20459;-59
2022/01/30 00:25:49;;;;;;;3.77;2.00;;;;;;;18.78;52.28;101485.03;5032957;28;20446;-59
2022/01/30 00:28:17;;;;;;;7.50;2.23;;;;;;;18.78;52.03;101470.72;5033245;28;20417;-59
2022/01/30 00:30:42;;;;;;;4.40;2.57;;;;;;;18.77;52.45;101483.31;5030407;28;21008;-59
2022/01/30 00:33:08;;;;;;;3.20;1.50;;;;;;;18.75;51.94;101470.56;5033173;28;20415;-59
2022/01/30 00:35:33;;;;;;;3.60;1.80;;;;;;;18.74;52.05;101469.75;5032485;28;20191;-59
2022/01/30 00:38:00;;;;;;;6.33;2.00;;;;;;;18.73;52.25;101473.81;5033376;28;20522;-59
2022/01/30 00:40:25;;;;;;;4.30;1.87;;;;;;;18.74;52.04;101464.03;5033177;28;20172;-59
2022/01/30 00:42:51;;;;;;;3.60;2.00;;;;;;;18.76;51.85;101453.06;5032632;28;20460;-59
2022/01/30 00:45:16;;;;;;;4.00;1.90;;;;;;;18.74;52.31;101457.47;5032565;28;20188;-59
2022/01/30 00:47:41;;;;;;;3.20;2.30;;;;;;;18.79;51.82;101452.34;5033222;28;20181;-59
2022/01/30 00:50:07;;;;;;;3.53;1.63;;;;;;;18.77;52.11;101460.44;5033073;28;20188;-59
2022/01/30 00:52:33;;;;;;;3.83;1.90;;;;;;;18.74;51.87;101466.88;5033146;28;20246;-59
2022/01/30 00:54:58;;;;;;;3.80;1.70;;;;;;;18.77;52.09;101451.84;5032462;28;20172;-59
2022/01/30 00:57:24;;;;;;;4.37;1.53;;;;;;;18.75;51.82;101457.09;5032328;28;20172;-59
2022/01/30 00:59:49;;;;;;;4.50;1.93;;;;;;;18.72;52.13;101460.66;5031088;28;20238;-59
2022/01/30 01:02:16;;;;;;;4.70;1.53;;;;;;;18.76;51.78;101463.69;5032249;28;20225;-59
2022/01/30 01:04:41;;;;;;;4.20;2.10;;;;;;;18.76;52.05;101464.50;5032773;28;20177;-59
2022/01/30 01:07:12;;;;;;;5.87;2.13;;;;;;;18.72;52.96;101462.72;5032807;28;20494;-59
2022/01/30 01:09:40;;;;;;;4.10;1.80;;;;;;;18.77;52.09;101477.59;5032803;28;20238;-59
2022/01/30 01:23:20;;;;;;;3.07;1.53;;;;;;;18.73;51.88;101459.50;5031432;28;20450;-59
2022/01/30 01:23:29;;;;;;;3.60;1.50;;;;;;;18.73;51.84;101458.66;5031463;28;20801;-59
2022/01/30 01:25:55;;;;;;;5.10;2.13;;;;;;;18.75;51.74;101459.97;5032213;28;20435;-59
2022/01/30 01:28:21;;;;;;;3.30;1.57;;;;;;;18.71;52.29;101459.00;5032494;28;20450;-59
2022/01/30 01:30:47;;;;;;;5.20;1.83;;;;;;;18.72;51.82;101457.00;5031122;28;20773;-57
2022/01/30 01:33:13;;;;;;;3.70;1.80;;;;;;;18.71;51.82;101450.41;5030306;28;20172;-59
2022/01/30 01:35:38;;;;;;;3.17;2.00;;;;;;;18.75;51.99;101456.25;5031810;28;20168;-59
2022/01/30 01:38:05;;;;;;;4.07;1.90;;;;;;;18.70;52.07;101454.47;5031310;28;20419;-59
2022/01/30 01:40:30;;;;;;;4.40;1.67;;;;;;;18.69;51.71;101447.09;5031907;28;20640;-59
2022/01/30 01:43:00;;;;;;;3.30;1.83;;;;;;;18.71;51.73;101438.16;5030757;28;20403;-58
2022/01/30 01:45:32;;;;;;;3.10;1.70;;;;;;;18.71;51.77;101450.41;5029909;28;20172;-59
2022/01/30 01:48:01;;;;;;;4.93;1.90;;;;;;;18.68;52.20;101442.56;5031653;28;20399;-58
2022/01/30 01:50:38;;;;;;;4.50;2.00;;;;;;;18.69;52.08;101447.09;5031582;28;20419;-59
2022/01/30 01:53:08;;;;;;;3.60;1.67;;;;;;;18.67;51.83;101442.91;5031159;28;20885;-59
2022/01/30 01:55:34;;;;;;;3.20;1.90;;;;;;;18.67;52.12;101458.03;5030586;28;20411;-59
2022/01/30 01:58:00;;;;;;;3.97;1.73;;;;;;;18.69;52.01;101452.81;5029208;28;20530;-59
2022/01/30 02:00:25;;;;;;;2.47;1.53;;;;;;;18.68;52.03;101444.59;5029749;28;20907;-59
2022/01/30 02:02:53;;;;;;;3.70;1.63;;;;;;;18.68;52.02;101450.31;5030780;28;20246;-59
2022/01/30 02:05:18;;;;;;;2.90;1.30;;;;;;;18.68;51.99;101448.28;5031703;28;20541;-58
2022/01/30 02:10:19;;;;;;;6.30;2.47;;;;;;;18.67;51.88;101452.31;5031104;28;20188;-59
2022/01/30 02:12:50;;;;;;;5.70;1.77;;;;;;;18.67;51.82;101448.63;5030085;28;20457;-59
2022/01/30 02:26:01;;;;;;;2.43;1.40;;;;;;;18.65;51.75;101422.38;5030580;28;20504;-59
2022/01/30 02:28:28;;;;;;;2.30;1.40;;;;;;;18.66;52.18;101427.75;5030614;28;20422;-59
2022/01/30 02:31:05;;;;;;;4.23;1.80;;;;;;;18.66;51.94;101430.63;5030514;28;20423;-59
2022/01/30 02:33:31;;;;;;;3.00;1.70;;;;;;;18.66;51.79;101426.94;5030900;28;20430;-58
2022/01/30 02:35:56;;;;;;;2.73;1.60;;;;;;;18.65;51.66;101428.97;5030877;28;20873;-59
2022/01/30 02:38:22;;;;;;;3.03;1.43;;;;;;;18.65;51.86;101420.38;5030660;28;20184;-59
2022/01/30 02:40:50;;;;;;;5.73;1.23;;;;;;;18.62;52.07;101418.22;5030611;28;20637;-59
2022/01/30 02:43:19;;;;;;;2.90;1.80;;;;;;;18.61;51.86;101410.84;5030448;28;20418;-59
2022/01/30 02:45:57;;;;;;;2.90;1.50;;;;;;;18.63;51.61;101414.19;5030746;28;20803;-59
2022/01/30 02:48:58;;;;;;;2.67;1.30;;;;;;;18.64;51.74;101418.72;5029980;28;20506;-59
2022/01/30 02:51:32;;;;;;;3.20;1.67;;;;;;;18.65;51.81;101422.38;5016492;28;20461;-59
2022/01/30 02:54:03;;;;;;;2.90;1.70;;;;;;;18.62;51.89;101417.41;5030824;28;20426;-59
2022/01/30 02:56:29;;;;;;;3.43;1.73;;;;;;;18.64;51.80;101421.56;5013413;28;20411;-58
2022/01/30 02:58:55;;;;;;;3.77;1.63;;;;;;;18.63;51.84;101424.78;5030140;28;20423;-59
2022/01/30 03:01:20;;;;;;;2.63;1.63;;;;;;;18.63;52.09;101436.22;5030508;28;20423;-59
2022/01/30 03:03:45;;;;;;;2.67;1.40;;;;;;;18.63;51.93;101428.50;5030052;28;20282;-59
2022/01/30 03:06:11;;;;;;;3.83;1.60;;;;;;;18.60;51.86;101434.91;5030564;28;20611;-59
2022/01/30 03:08:37;;;;;;;4.10;2.20;;;;;;;18.61;52.06;101433.72;5030111;28;20188;-59
2022/01/30 03:11:03;;;;;;;3.50;1.83;;;;;;;18.62;51.80;101446.81;5029451;28;20184;-59
2022/01/30 03:13:28;;;;;;;2.57;1.20;;;;;;;18.60;51.88;101443.50;5029748;28;20176;-58
2022/01/30 03:15:55;;;;;;;4.30;1.53;;;;;;;18.63;51.89;101444.81;5030034;28;20917;-58
2022/01/30 03:18:21;;;;;;;3.17;1.77;;;;;;;18.61;51.64;101447.19;5030283;28;20188;-59
2022/01/30 03:20:47;;;;;;;2.97;1.33;;;;;;;18.57;52.04;101447.03;5029560;28;20754;-59
2022/01/30 03:23:13;;;;;;;4.03;1.20;;;;;;;18.60;52.09;101448.38;5030024;28;20153;-58
2022/01/30 03:25:38;;;;;;;2.40;1.40;;;;;;;18.59;51.73;101444.69;5030203;28;20780;-58
2022/01/30 03:28:04;;;;;;;3.50;1.40;;;;;;;18.59;51.79;101456.13;5029934;28;20199;-59
2022/01/30 03:30:30;;;;;;;2.93;1.37;;;;;;;18.58;51.86;101454.47;5029908;28;20184;-59
2022/01/30 03:32:56;;;;;;;2.27;1.20;;;;;;;18.55;51.96;101458.00;5029290;28;20934;-59
2022/01/30 03:35:22;;;;;;;2.40;1.60;;;;;;;18.59;51.92;101464.72;5029745;28;20176;-59
2022/01/30 03:37:47;;;;;;;2.60;1.30;;;;;;;18.55;52.05;101460.88;5029717;28;20239;-59
2022/01/30 03:40:13;;;;;;;4.23;1.40;;;;;;;18.57;52.02;101472.78;5029605;28;20191;-58
2022/01/30 03:42:38;;;;;;;3.27;1.53;;;;;;;18.57;52.08;101477.69;5030083;28;20179;-59
2022/01/30 03:45:04;;;;;;;2.67;1.40;;;;;;;18.59;51.83;101483.88;5029233;28;20585;-59
2022/01/30 03:47:29;;;;;;;1.90;1.03;;;;;;;18.58;51.78;101494.50;5030121;28;20212;-58
2022/01/30 03:49:55;;;;;;;5.03;1.53;;;;;;;18.57;51.75;101492.00;5029685;28;20176;-59
2022/01/30 03:52:20;;;;;;;3.00;1.30;;;;;;;18.59;51.50;101493.31;5029877;28;20757;-59
2022/01/30 03:54:46;;;;;;;2.63;1.40;;;;;;;18.59;51.76;101507.59;5029385;28;20203;-59
2022/01/30 03:57:11;;;;;;;2.27;1.47;;;;;;;18.56;52.06;101493.19;5034214;28;20191;-58
2022/01/30 03:59:37;;;;;;;3.97;1.70;;;;;;;18.54;52.03;101486.97;5033847;28;20230;-59
2022/01/30 04:02:03;;;;;;;4.23;1.33;;;;;;;18.55;52.01;101492.34;5033755;28;20302;-59
2022/01/30 04:04:28;;;;;;;2.80;1.57;;;;;;;18.53;52.02;101499.59;5033726;28;20518;-59
2022/01/30 04:07:00;;;;;;;3.53;1.43;;;;;;;18.59;51.97;101506.75;5033647;28;20196;-59
2022/01/30 04:09:26;;;;;;;2.17;1.10;;;;;;;18.59;51.68;101504.75;5032526;28;20223;-59
2022/01/30 04:11:52;;;;;;;3.30;1.60;;;;;;;18.54;51.93;101504.97;5033655;28;20462;-59
2022/01/30 04:14:17;;;;;;;2.73;1.23;;;;;;;18.55;52.13;101505.78;5032808;28;20451;-59
2022/01/30 04:16:43;;;;;;;4.77;1.40;;;;;;;18.55;51.91;101508.63;5033667;28;20179;-58
2022/01/30 04:19:08;;;;;;;2.00;1.07;;;;;;;18.57;51.81;101509.97;5033324;28;20703;-59
2022/01/30 04:21:34;;;;;;;3.10;1.60;;;;;;;18.57;51.59;101512.81;5033321;28;20176;-59
2022/01/30 04:23:59;;;;;;;2.40;1.30;;;;;;;18.52;51.83;101515.91;5033090;28;20168;-59
2022/01/30 04:26:25;;;;;;;2.83;1.23;;;;;;;18.51;52.18;101519.97;5033099;28;20226;-58
2022/01/30 04:28:50;;;;;;;2.23;1.47;;;;;;;18.57;51.69;101518.53;5032945;28;20710;-58
2022/01/30 04:31:16;;;;;;;2.20;1.20;;;;;;;18.55;51.81;101518.06;5033394;28;20208;-59
2022/01/30 04:33:42;;;;;;;3.03;1.10;;;;;;;18.56;51.71;101521.78;5033324;28;20259;-58
2022/01/30 04:36:11;;;;;;;2.10;1.07;;;;;;;18.52;51.97;101526.53;5033112;28;20177;-59
2022/01/30 04:52:18;;;;;;;2.40;1.20;;;;;;;18.53;52.13;101539.63;5032741;28;20910;-59
2022/01/30 05:00:18;;;;;;;2.37;1.30;;;;;;;18.53;51.95;101531.91;5032194;28;20419;-59
2022/01/30 05:08:03;;;;;;;2.23;1.33;;;;;;;18.60;51.59;101526.44;5032568;28;20802;-59
2022/01/30 05:10:28;;;;;;;1.73;1.00;;;;;;;18.55;51.70;101525.81;5032085;28;20442;-59
2022/01/30 05:12:57;;;;;;;2.50;1.00;;;;;;;18.53;51.67;101516.75;5031172;28;20829;-58
2022/01/30 05:15:22;;;;;;;2.53;1.10;;;;;;;18.53;51.94;101523.31;5031822;28;20172;-58
2022/01/30 05:17:48;;;;;;;2.00;1.00;;;;;;;18.52;51.82;101526.53;5032490;28;20485;-59
2022/01/30 05:20:14;;;;;;;1.70;1.10;;;;;;;18.60;51.75;101522.72;5031530;28;20176;-59
2022/01/30 05:22:39;;;;;;;2.27;1.10;;;;;;;18.58;51.70;101517.38;5032496;28;20181;-59
2022/01/30 05:25:05;;;;;;;2.17;1.17;;;;;;;18.52;51.65;101515.91;5031831;28;20181;-59
2022/01/30 05:27:31;;;;;;;2.53;1.23;;;;;;;18.54;51.90;101522.13;5032589;28;20331;-59
2022/01/30 05:29:57;;;;;;;2.40;1.20;;;;;;;18.60;51.35;101522.72;5031791;28;20415;-58
2022/01/30 05:32:22;;;;;;;1.90;1.13;;;;;;;18.58;51.47;101531.69;5032055;28;20295;-59
2022/01/30 05:34:48;;;;;;;2.10;1.23;;;;;;;18.54;51.76;101539.28;5030602;28;20188;-58
2022/01/30 05:37:20;;;;;;;1.80;1.00;;;;;;;18.54;51.68;101533.56;5031245;28;20601;-59
2022/01/30 05:39:46;;;;;;;1.70;1.00;;;;;;;18.54;51.59;101541.28;5029313;28;20621;-59
2022/01/30 05:42:12;;;;;;;2.23;1.20;;;;;;;18.58;51.58;101534.53;5032471;28;20507;-59
2022/01/30 05:44:56;;;;;;;2.53;1.13;;;;;;;18.54;51.65;101536.44;5032301;28;20180;-59
2022/01/30 05:47:27;;;;;;;1.70;0.90;;;;;;;18.57;51.41;101532.03;5032042;28;20919;-59
2022/01/30 05:49:53;;;;;;;2.53;1.10;;;;;;;18.53;51.65;101533.91;5031654;28;20442;-59
2022/01/30 05:52:18;;;;;;;2.63;1.30;;;;;;;18.52;51.69;101550.22;5032002;28;20447;-59
2022/01/30 05:54:44;;;;;;;2.10;1.00;;;;;;;18.60;51.19;101560.75;5031409;28;20183;-59
2022/01/30 05:57:09;;;;;;;2.03;1.10;;;;;;;18.54;51.60;101565.03;5031744;28;20537;-59
2022/01/30 05:59:34;;;;;;;1.73;1.07;;;;;;;18.60;51.38;101562.75;5031400;28;20165;-59
2022/01/30 06:02:00;;;;;;;4.33;1.20;;;;;;;18.56;51.53;101565.50;5031481;28;20216;-59
2022/01/30 06:04:25;;;;;;;1.80;1.07;;;;;;;18.60;51.55;101569.34;5031566;28;20180;-59
2022/01/30 06:06:53;;;;;;;3.13;1.10;;;;;;;18.57;51.30;101569.22;5031597;28;20208;-59
2022/01/30 06:09:19;;;;;;;2.83;1.30;;;;;;;18.59;51.25;101572.53;5031193;28;20238;-59
2022/01/30 06:11:50;;;;;;;2.13;1.30;;;;;;;18.59;51.88;101575.41;5031459;28;20458;-58
2022/01/30 06:14:16;;;;;;;2.90;1.00;;;;;;;18.55;51.88;101578.13;5030899;28;20168;-59
2022/01/30 06:16:42;;;;;;;2.10;1.20;;;;;;;18.61;51.45;101581.63;5030993;28;20510;-59
2022/01/30 06:19:08;;;;;;;1.93;1.20;;;;;;;18.58;51.20;101580.31;5030483;28;20431;-59
2022/01/30 06:21:33;;;;;;;4.27;1.40;;;;;;;18.59;51.37;101576.25;5031169;28;20411;-59
2022/01/30 06:23:59;;;;;;;1.93;1.00;;;;;;;18.56;51.44;101585.53;5030957;28;20169;-59
2022/01/30 06:26:25;;;;;;;1.60;0.80;;;;;;;18.62;51.43;101597.59;5031152;28;20176;-59
2022/01/30 06:28:50;;;;;;;2.60;1.13;;;;;;;18.58;51.32;101599.47;5031145;28;20863;-58
2022/01/30 06:31:16;;;;;;;2.10;1.20;;;;;;;18.57;51.40;101598.63;5030568;28;20242;-59
2022/01/30 06:33:41;;;;;;;2.00;1.10;;;;;;;18.61;51.25;101608.19;5031494;28;20515;-59
2022/01/30 06:36:07;;;;;;;1.83;0.90;;;;;;;18.61;51.07;101616.75;5030993;28;20314;-59
2022/01/30 06:38:32;;;;;;;3.30;1.50;;;;;;;18.57;51.43;101614.97;5030648;28;20219;-59
2022/01/30 06:40:58;;;;;;;2.00;0.97;;;;;;;18.61;51.32;101618.81;5030396;28;20173;-59
2022/01/30 06:43:23;;;;;;;2.33;1.03;;;;;;;18.59;51.03;101613.44;5030880;28;20636;-59
2022/01/30 06:45:49;;;;;;;2.80;1.10;;;;;;;18.61;51.23;101616.75;5030565;28;20208;-59
2022/01/30 06:48:18;;;;;;;2.00;1.03;;;;;;;18.59;51.21;101615.44;5030944;28;20181;-59
2022/01/30 06:50:44;;;;;;;1.90;0.97;;;;;;;18.62;51.23;101624.16;5029931;28;20286;-59
2022/01/30 06:53:09;;;;;;;1.97;1.10;;;;;;;18.61;51.36;101621.66;5030650;28;20454;-59
2022/01/30 06:55:34;;;;;;;2.63;1.40;;;;;;;18.62;50.85;101629.06;5030100;28;20536;-59
2022/01/30 06:58:00;;;;;;;2.47;1.30;;;;;;;18.60;51.02;101629.41;5030732;28;20493;-59
2022/01/30 07:00:25;;;;;;;1.87;1.20;;;;;;;18.59;51.26;101636.31;5030337;28;20176;-59
2022/01/30 07:02:51;;;;;;;2.33;1.10;;;;;;;18.59;51.16;101635.47;5029984;28;20228;-59
2022/01/30 07:05:16;;;;;;;2.40;1.30;;;;;;;18.61;51.11;101638.84;5030295;28;20474;-59
2022/01/30 07:07:42;;;;;;;2.70;1.47;;;;;;;18.63;51.33;101639.31;5030931;28;20184;-59
2022/01/30 07:10:08;;;;;;;1.90;1.00;;;;;;;18.62;51.17;101644.19;5030505;28;20160;-59
2022/01/30 07:12:33;;;;;;;2.60;1.10;;;;;;;18.60;51.32;101649.41;5030364;28;20201;-59
2022/01/30 07:14:59;;;;;;;1.93;1.13;;;;;;;18.63;51.14;101640.16;5029510;28;20179;-59
2022/01/30 07:17:24;;;;;;;2.20;1.40;;;;;;;18.62;50.95;101646.22;5030141;28;20168;-59
2022/01/30 07:19:49;;;;;;;2.13;1.17;;;;;;;18.63;51.00;101654.47;5029825;28;20172;-59
2022/01/30 07:22:15;;;;;;;2.57;1.20;;;;;;;18.60;51.42;101637.97;5029271;28;20542;-59
2022/01/30 07:24:40;;;;;;;1.80;1.00;;;;;;;18.60;51.36;101642.84;5029732;28;20184;-59
2022/01/30 07:27:06;;;;;;;2.30;1.10;;;;;;;18.58;51.42;101646.09;5029995;28;20576;-59
2022/01/30 07:29:31;;;;;;;2.10;1.00;;;;;;;18.59;51.32;101649.75;5029408;28;20200;-59
2022/01/30 07:31:57;;;;;;;2.10;0.93;;;;;;;18.61;51.32;101650.28;5029400;28;20254;-59
2022/01/30 07:34:22;;;;;;;1.70;1.00;;;;;;;18.61;51.37;101658.84;5029593;28;20165;-59
2022/01/30 07:36:48;;;;;;;1.90;1.10;;;;;;;18.65;51.13;101663.50;5028312;28;20172;-59
2022/01/30 07:39:16;;;;;;;3.53;1.10;;;;;;;18.65;51.20;101666.38;5029187;28;20214;-59
2022/01/30 07:41:44;;;;;;;2.13;1.00;;;;;;;18.64;51.05;101669.56;5029988;28;20169;-59
2022/01/30 07:44:10;;;;;;;2.43;1.13;;;;;;;18.60;51.10;101678.03;5030508;28;20506;-60
2022/01/30 07:46:35;;;;;;;2.00;0.83;;;;;;;18.59;51.01;101676.34;5029949;28;20450;-59
2022/01/30 07:49:01;;;;;;;2.13;1.00;;;;;;;18.62;51.01;101687.09;5028915;28;20660;-59
2022/01/30 07:51:26;;;;;;;1.90;1.07;;;;;;;18.66;51.12;101690.94;5029524;28;20196;-59
2022/01/30 07:53:51;;;;;;;1.80;0.90;;;;;;;18.66;51.12;101693.78;5029939;28;20188;-59
2022/01/30 07:56:17;;;;;;;2.20;1.30;;;;;;;18.64;51.07;101684.72;5029959;28;20644;-59
2022/01/30 07:58:42;;;;;;;2.70;1.10;;;;;;;18.66;51.05;101687.25;5030266;28;20176;-59
2022/01/30 08:01:11;;;;;;;3.50;1.00;;;;;;;18.65;51.11;101688.41;5029901;28;20180;-58
2022/01/30 08:03:36;;;;;;;1.67;0.90;;;;;;;18.62;50.99;101686.25;5029345;28;20649;-59
2022/01/30 08:06:02;;;;;;;2.43;1.20;;;;;;;18.63;51.05;101699.38;5029375;28;20447;-59
2022/01/30 08:08:27;;;;;;;2.33;1.30;;;;;;;18.68;51.04;101702.88;5029686;28;20184;-59
2022/01/30 08:10:52;;;;;;;2.27;1.10;;;;;;;18.66;50.80;101710.94;5029204;28;20176;-59
2022/01/30 08:13:18;;;;;;;2.20;1.20;;;;;;;18.67;50.82;101704.03;5029624;28;20208;-59
2022/01/30 08:15:45;;;;;;;2.00;1.00;;;;;;;18.64;51.48;101712.47;5029312;28;20203;-58
2022/01/30 08:18:10;;;;;;;2.10;1.20;;;;;;;18.63;51.09;101708.81;5030074;28;20241;-59
2022/01/30 08:20:35;;;;;;;1.90;1.00;;;;;;;18.66;50.82;101710.13;5028928;28;20423;-59
2022/01/30 08:23:07;;;;;;;2.10;1.10;;;;;;;18.63;51.21;101705.94;5029280;28;20750;-59
2022/01/30 08:25:32;;;;;;;1.80;1.13;;;;;;;18.64;51.14;101713.34;5028767;28;20191;-58
2022/01/30 08:27:58;;;;;;;2.07;1.20;;;;;;;18.64;51.27;101723.94;5029080;28;20415;-59
2022/01/30 08:30:23;;;;;;;1.80;1.00;;;;;;;18.66;51.18;101728.13;5029424;28;20165;-59
2022/01/30 08:32:49;;;;;;;2.50;1.00;;;;;;;18.67;50.98;101724.06;5029263;28;20565;-59
2022/01/30 08:35:15;;;;;;;2.03;1.20;;;;;;;18.64;50.93;101730.50;5029307;28;20187;-59
2022/01/30 08:37:41;;;;;;;2.63;1.30;;;;;;;18.62;51.10;101727.13;5028319;28;20419;-59
2022/01/30 08:40:09;;;;;;;2.27;1.10;;;;;;;18.66;51.12;101733.84;5029293;28;20188;-59
2022/01/30 08:42:35;;;;;;;2.63;1.57;;;;;;;18.67;51.28;101732.66;5030342;28;20176;-58
2022/01/30 08:45:00;;;;;;;2.67;1.10;;;;;;;18.69;50.77;101733.16;5033148;28;20473;-59
2022/01/30 08:47:26;;;;;;;2.03;1.20;;;;;;;18.67;50.88;101740.41;5032601;28;20188;-59
2022/01/30 08:49:51;;;;;;;1.90;1.07;;;;;;;18.70;50.77;101736.84;5032297;28;20177;-59
2022/01/30 08:52:19;;;;;;;1.80;0.80;;;;;;;18.67;50.81;101740.41;5031980;28;20196;-59
2022/01/30 08:54:48;;;;;;;2.13;1.13;;;;;;;18.69;50.88;101736.00;5032941;28;20180;-59
2022/01/30 08:57:13;;;;;;;1.60;0.83;;;;;;;18.67;50.76;101737.53;5032889;28;20423;-59
2022/01/30 08:59:39;;;;;;;2.27;1.27;;;;;;;18.69;50.72;101738.88;5032302;28;20450;-59
2022/01/30 09:02:04;;;;;;;1.80;1.00;;;;;;;18.64;51.04;101741.94;5032228;28;20228;-58
2022/01/30 09:04:30;;;;;;;2.27;1.10;;;;;;;18.68;50.72;101742.94;5031609;28;20161;-58
2022/01/30 09:06:55;;;;;;;1.80;0.90;;;;;;;18.70;50.85;101742.56;5031303;28;20205;-59
2022/01/30 09:09:21;;;;;;;1.97;1.07;;;;;;;18.66;50.80;101745.28;5031316;28;20514;-59
2022/01/30 09:11:47;;;;;;;1.93;1.00;;;;;;;18.65;50.97;101743.59;5032232;28;20204;-59
2022/01/30 09:14:12;;;;;;;1.90;1.00;;;;;;;18.64;51.35;101749.66;5032066;28;20625;-59
2022/01/30 09:16:38;;;;;;;2.00;1.33;;;;;;;18.66;51.03;101748.13;5032763;28;20173;-59
2022/01/30 09:19:03;;;;;;;1.67;0.80;;;;;;;18.66;50.95;101751.00;5032382;28;20235;-58
2022/01/30 09:21:28;;;;;;;1.87;1.07;;;;;;;18.67;51.02;101755.53;5031923;28;20168;-58
2022/01/30 09:23:54;;;;;;;2.60;1.33;;;;;;;18.66;51.10;101750.19;5032767;28;20187;-58
2022/01/30 09:26:20;;;;;;;2.47;1.20;;;;;;;18.65;51.08;101746.47;5032043;28;20636;-58
2022/01/30 09:28:46;;;;;;;2.80;1.17;;;;;;;18.67;51.00;101744.09;5032348;28;20419;-59
2022/01/30 09:31:11;;;;;;;2.00;0.90;;;;;;;18.67;51.11;101743.25;5032089;28;20180;-58
2022/01/30 09:33:36;;;;;;;2.30;1.30;;;;;;;18.72;50.70;101740.19;5032326;28;20172;-58
2022/01/30 09:36:03;;;;;;;3.40;1.10;;;;;;;18.69;50.83;101738.03;5030641;28;20184;-59
2022/01/30 09:38:29;;;;;;;1.70;1.00;;;;;;;18.69;50.73;101749.47;5031486;28;20180;-58
2022/01/30 09:40:54;;;;;;;1.90;1.03;;;;;;;18.69;50.66;101743.75;5031969;28;20473;-59
2022/01/30 09:43:20;;;;;;;1.90;1.00;;;;;;;18.67;50.85;101746.94;5030335;28;20173;-59
2022/01/30 09:45:46;;;;;;;2.27;1.07;;;;;;;18.69;51.13;101750.31;5029811;28;20237;-58
2022/01/30 09:48:11;;;;;;;3.97;0.93;;;;;;;18.70;51.24;101746.25;5030657;28;20407;-58
2022/01/30 09:50:37;;;;;;;2.27;1.47;;;;;;;18.71;50.78;101750.78;5031549;28;20181;-59
2022/01/30 09:53:02;;;;;;;3.00;1.20;;;;;;;18.70;50.86;101756.84;5030489;28;20200;-59
2022/01/30 09:55:28;;;;;;;1.77;1.00;;;;;;;18.71;51.02;101758.56;5031759;28;20184;-58
2022/01/30 09:57:53;;;;;;;2.53;1.20;;;;;;;18.70;51.09;101754.00;5031469;28;20161;-59
2022/01/30 10:00:19;;;;;;;2.07;1.10;;;;;;;18.72;50.78;101755.31;5031380;28;20188;-59
2022/01/30 10:02:44;;;;;;;2.43;1.07;;;;;;;18.70;51.06;101749.13;5031376;28;20228;-58
2022/01/30 10:05:13;;;;;;;2.53;1.30;;;;;;;18.73;50.62;101745.59;5031517;28;20184;-58
2022/01/30 10:07:43;;;;;;;2.30;1.07;;;;;;;18.72;50.61;101731.63;5031340;28;20259;-58
2022/01/30 10:10:10;;;;;;;2.03;1.13;;;;;;;18.75;50.62;101730.91;5031054;28;20439;-59
2022/01/30 10:12:35;;;;;;;2.27;1.30;;;;;;;18.74;51.26;101730.09;5031280;28;20467;-59
2022/01/30 10:15:03;;;;;;;1.90;1.10;;;;;;;18.72;50.77;101735.31;5031405;28;20952;-59
2022/01/30 10:17:36;;;;;;;2.47;1.27;;;;;;;18.73;50.69;101739.00;5031038;28;20191;-58
2022/01/30 10:20:11;;;;;;;1.87;1.13;;;;;;;18.74;50.79;101747.25;5030184;28;20423;-58
2022/01/30 10:22:53;;;;;;;1.90;1.07;;;;;;;18.77;50.69;101751.44;5030468;28;20410;-58
2022/01/30 10:25:29;;;;;;;2.30;1.13;;;;;;;18.76;50.83;101752.63;5029992;28;20481;-59
2022/01/30 10:28:14;;;;;;;1.90;0.93;;;;;;;18.77;50.72;101746.53;5031134;28;20956;-59
2022/01/30 10:30:46;;;;;;;1.70;0.93;;;;;;;18.78;50.46;101745.38;5030700;28;20465;-58
2022/01/30 10:33:13;;;;;;;2.30;1.00;;;;;;;18.79;50.39;101731.91;5030347;28;20471;-58
2022/01/30 10:35:58;;;;;;;2.37;1.00;;;;;;;18.77;50.62;101729.38;5031450;28;20419;-58
2022/01/30 10:38:24;;;;;;;2.10;1.07;;;;;;;18.80;50.42;101716.41;5031213;28;20481;-58
2022/01/30 10:41:09;;;;;;;2.33;1.30;;;;;;;18.76;50.51;101707.69;5030527;28;20423;-58
2022/01/30 10:44:02;;;;;;;2.50;1.03;;;;;;;18.77;50.72;101697.91;5030322;28;20419;-58
2022/01/30 10:46:38;;;;;;;2.67;1.10;;;;;;;18.80;50.63;101693.50;5030466;28;20518;-58
2022/01/30 10:49:19;;;;;;;2.23;1.10;;;;;;;18.81;50.65;101690.31;5030679;28;20418;-59
2022/01/30 10:51:51;;;;;;;3.87;1.00;;;;;;;18.83;50.42;101678.50;5030514;28;20450;-58
2022/01/30 10:54:16;;;;;;;2.77;1.23;;;;;;;18.84;50.67;101683.03;5030809;28;20415;-59
2022/01/30 10:56:42;;;;;;;1.90;1.10;;;;;;;18.79;50.85;101674.66;5030722;28;20981;-59
2022/01/30 10:59:20;;;;;;;2.07;1.00;;;;;;;18.79;50.86;101672.66;5028881;28;20180;-58
2022/01/30 11:01:50;;;;;;;2.63;1.20;;;;;;;18.78;50.89;101671.00;5030416;28;20672;-59
2022/01/30 11:04:21;;;;;;;2.63;1.20;;;;;;;18.86;50.43;101681.50;5029155;28;20423;-59
2022/01/30 11:06:47;;;;;;;2.20;1.00;;;;;;;18.81;51.17;101673.13;5029855;28;20431;-58
2022/01/30 11:09:15;;;;;;;3.20;1.40;;;;;;;18.86;50.56;101680.69;5029374;28;20625;-58
2022/01/30 11:11:46;;;;;;;2.00;1.20;;;;;;;18.84;50.56;101672.44;5030027;28;20203;-59
2022/01/30 11:16:57;;;;;;;2.77;1.30;;;;;;;18.82;50.33;101680.53;5029897;28;20779;-58
2022/01/30 11:19:23;;;;;;;2.70;1.40;;;;;;;18.83;50.27;101687.09;5029021;28;20206;-59
2022/01/30 11:22:02;;;;;;;2.70;1.30;;;;;;;18.84;50.58;101678.16;5030034;28;20419;-58
2022/01/30 11:24:28;;;;;;;2.40;1.50;;;;;;;18.80;50.71;101682.06;5030271;28;20180;-59
2022/01/30 11:26:54;;;;;;;2.27;1.20;;;;;;;18.80;50.64;101671.47;5030116;28;20796;-58
2022/01/30 11:29:22;;;;;;;3.00;1.37;;;;;;;18.83;50.50;101670.78;5029747;28;20180;-58
2022/01/30 11:31:48;;;;;;;3.10;1.30;;;;;;;18.81;50.67;101670.28;5030138;28;20235;-59
2022/01/30 11:34:13;;;;;;;2.60;1.40;;;;;;;18.88;50.41;101672.56;5029959;28;20778;-59
2022/01/30 11:36:40;;;;;;;2.13;1.10;;;;;;;18.88;50.34;101666.84;5028742;28;20423;-59
2022/01/30 11:39:06;;;;;;;2.03;0.97;;;;;;;18.87;50.39;101668.03;5028708;28;20184;-59
2022/01/30 11:41:34;;;;;;;3.17;1.20;;;;;;;18.87;50.39;101663.13;5030127;28;20846;-58
2022/01/30 11:44:17;;;;;;;3.60;1.77;;;;;;;18.87;50.48;101668.88;5029560;28;20694;-58
2022/01/30 11:46:52;;;;;;;1.77;1.07;;;;;;;18.85;50.45;101656.09;5029399;28;20419;-59
2022/01/30 11:49:17;;;;;;;2.40;1.07;;;;;;;18.90;50.47;101656.72;5029694;28;20421;-59
2022/01/30 11:51:53;;;;;;;1.90;1.10;;;;;;;18.88;50.67;101664.84;5029927;28;20820;-58
2022/01/30 11:54:38;;;;;;;2.03;1.13;;;;;;;18.85;50.84;101651.22;5029406;28;20233;-58
2022/01/30 11:57:04;;;;;;;3.03;1.70;;;;;;;18.87;50.59;101648.84;5029703;28;20537;-59
2022/01/30 11:59:39;;;;;;;2.10;1.20;;;;;;;18.89;50.32;101646.47;5027893;28;20910;-58
2022/01/30 12:02:24;;;;;;;2.20;1.10;;;;;;;18.93;50.30;101640.88;5029774;28;20484;-60
2022/01/30 12:05:08;;;;;;;2.60;1.10;;;;;;;18.98;50.04;101637.81;5029607;28;20801;-59
2022/01/30 12:07:47;;;;;;;2.47;1.20;;;;;;;18.91;50.45;101640.41;5029312;28;20516;-58
2022/01/30 12:10:27;;;;;;;1.90;1.07;;;;;;;18.91;50.55;101644.09;5029530;28;20414;-58
2022/01/30 12:12:52;;;;;;;2.03;1.23;;;;;;;18.95;50.28;101645.06;5029684;28;21048;-59
2022/01/30 12:15:36;;;;;;;3.43;1.60;;;;;;;18.88;50.73;101641.94;5028986;28;20434;-59